createdAt,value
2023-03-24T00:00:21.719Z,66.27
2023-03-24T00:02:52.654Z,66.18
2023-03-24T00:08:17.425Z,66.54
2023-03-24T00:10:47.705Z,66.56
2023-03-24T00:13:16.502Z,66.87
2023-03-24T00:15:48.955Z,66.84
2023-03-24T00:18:18.535Z,66.94
2023-03-24T00:20:47.533Z,67.27
2023-03-24T00:23:15.902Z,67.28
2023-03-24T00:25:45.292Z,67.32
2023-03-24T00:28:16.410Z,67.35
2023-03-24T00:30:53.689Z,67.38
2023-03-24T00:33:22.356Z,67.45
2023-03-24T00:35:50.642Z,67.62
2023-03-24T00:38:19.732Z,67.54
2023-03-24T00:40:50.444Z,67.52
2023-03-24T00:43:19.307Z,67.57
2023-03-24T00:45:47.591Z,67.63
2023-03-24T00:48:24.496Z,67.91
2023-03-24T00:50:52.796Z,67.90
2023-03-24T00:53:23.457Z,67.81
2023-03-24T00:55:54.030Z,67.95
2023-03-24T00:58:23.086Z,67.95
2023-03-24T01:00:55.911Z,67.88
2023-03-24T01:03:30.180Z,67.96
2023-03-24T01:06:03.187Z,68.05
2023-03-24T01:08:32.905Z,68.08
2023-03-24T01:11:01.694Z,68.01
2023-03-24T01:13:32.222Z,68.25
2023-03-24T01:16:00.389Z,68.33
2023-03-24T01:18:28.515Z,68.35
2023-03-24T01:20:58.480Z,68.35
2023-03-24T01:23:26.895Z,68.36
2023-03-24T01:25:55.371Z,68.34
2023-03-24T01:28:25.375Z,68.28
2023-03-24T01:30:54.184Z,68.41
2023-03-24T01:33:22.446Z,68.33
2023-03-24T01:35:51.246Z,68.28
2023-03-24T01:38:19.819Z,67.99
2023-03-24T01:40:48.470Z,67.85
2023-03-24T01:43:22.435Z,67.79
2023-03-24T01:45:51.203Z,67.63
2023-03-24T01:48:25.771Z,67.65
2023-03-24T01:50:58.011Z,67.51
2023-03-24T01:53:26.262Z,67.38
2023-03-24T01:55:56.336Z,67.36
2023-03-24T01:58:30.945Z,67.28
2023-03-24T02:01:14.193Z,67.21
2023-03-24T02:04:04.057Z,67.17
2023-03-24T02:06:34.154Z,67.25
2023-03-24T02:09:04.577Z,67.33
2023-03-24T02:11:35.208Z,67.31
2023-03-24T02:14:13.474Z,67.45
2023-03-24T02:16:42.174Z,67.51
2023-03-24T02:19:38.156Z,67.45
2023-03-24T02:22:30.248Z,67.27
2023-03-24T02:25:21.824Z,67.24
2023-03-24T02:28:25.652Z,66.94
2023-03-24T02:31:19.294Z,66.71
2023-03-24T02:34:19.527Z,66.51
2023-03-24T02:36:57.565Z,66.42
2023-03-24T02:39:46.908Z,66.53
2023-03-24T02:42:22.202Z,66.38
2023-03-24T02:45:16.751Z,66.44
2023-03-24T02:47:58.622Z,66.40
2023-03-24T02:50:33.302Z,66.48
2023-03-24T02:53:06.280Z,66.60
2023-03-24T02:56:10.229Z,66.52
2023-03-24T02:58:42.423Z,66.81
2023-03-24T03:01:19.097Z,66.86
2023-03-24T03:04:08.469Z,66.85
2023-03-24T03:06:40.369Z,67.04
2023-03-24T03:09:11.747Z,67.10
2023-03-24T03:11:45.303Z,67.28
2023-03-24T03:14:21.505Z,67.50
2023-03-24T03:17:00.226Z,67.53
2023-03-24T03:19:38.950Z,67.74
2023-03-24T03:22:11.265Z,67.66
2023-03-24T03:24:41.737Z,67.79
2023-03-24T03:27:14.996Z,68.07
2023-03-24T03:29:50.399Z,68.09
2023-03-24T03:32:24.840Z,68.00
2023-03-24T03:34:57.989Z,68.33
2023-03-24T03:37:34.189Z,68.38
2023-03-24T03:40:25.812Z,68.45
2023-03-24T03:42:58.212Z,68.70
2023-03-24T03:45:31.169Z,68.82
2023-03-24T03:47:59.980Z,68.87
2023-03-24T03:50:28.511Z,69.16
2023-03-24T03:52:57.779Z,69.43
2023-03-24T03:55:26.135Z,69.44
2023-03-24T03:57:54.842Z,69.50
2023-03-24T04:00:31.767Z,69.79
2023-03-24T04:03:38.063Z,69.87
2023-03-24T04:06:13.986Z,70.14
2023-03-24T04:08:53.426Z,70.28
2023-03-24T04:11:45.322Z,70.42
2023-03-24T04:14:31.869Z,70.51
2023-03-24T04:17:57.802Z,70.73
2023-03-24T04:21:02.452Z,71.03
2023-03-24T04:23:50.149Z,71.23
2023-03-24T04:26:34.573Z,71.39
2023-03-24T04:29:09.212Z,71.60
2023-03-24T04:31:49.595Z,71.66
2023-03-24T04:34:34.101Z,71.84
2023-03-24T04:37:26.952Z,71.83
2023-03-24T04:40:06.130Z,71.99
2023-03-24T04:42:41.273Z,71.97
2023-03-24T04:45:09.886Z,72.23
2023-03-24T04:48:10.088Z,72.40
2023-03-24T04:50:57.193Z,72.44
2023-03-24T04:53:29.320Z,72.44
2023-03-24T04:56:16.590Z,72.50
2023-03-24T04:58:59.859Z,72.64
2023-03-24T05:01:31.391Z,72.58
2023-03-24T05:04:23.912Z,72.76
2023-03-24T05:06:52.649Z,72.82
2023-03-24T05:09:24.982Z,72.87
2023-03-24T05:12:01.422Z,72.92
2023-03-24T05:14:35.223Z,73.15
2023-03-24T05:17:06.227Z,73.53
2023-03-24T05:19:42.126Z,73.65
2023-03-24T05:22:10.441Z,73.89
2023-03-24T05:24:40.371Z,74.29
2023-03-24T05:27:12.053Z,74.82
2023-03-24T05:29:40.621Z,75.22
2023-03-24T05:32:16.186Z,75.67
2023-03-24T05:34:45.687Z,75.85
2023-03-24T05:37:17.801Z,76.12
2023-03-24T05:39:49.425Z,76.52
2023-03-24T05:42:49.364Z,76.42
2023-03-24T05:45:17.908Z,76.49
2023-03-24T05:47:46.873Z,76.18
2023-03-24T05:50:15.199Z,75.85
2023-03-24T05:52:46.583Z,75.67
2023-03-24T05:55:33.171Z,75.44
2023-03-24T05:58:08.261Z,75.68
2023-03-24T06:00:41.984Z,75.48
2023-03-24T06:03:17.554Z,74.96
2023-03-24T06:05:52.881Z,74.55
2023-03-24T06:08:21.498Z,74.24
2023-03-24T06:10:53.592Z,73.64
2023-03-24T06:13:22.418Z,73.52
2023-03-24T06:15:54.766Z,73.05
2023-03-24T06:18:40.552Z,72.40
2023-03-24T06:21:18.656Z,72.25
2023-03-24T06:23:53.542Z,71.97
2023-03-24T06:26:30.929Z,71.63
2023-03-24T06:29:00.409Z,71.50
2023-03-24T06:31:32.907Z,71.65
2023-03-24T06:34:02.635Z,71.76
2023-03-24T06:36:31.334Z,71.68
2023-03-24T06:39:01.014Z,71.56
2023-03-24T06:41:29.819Z,71.74
2023-03-24T06:44:01.304Z,71.81
2023-03-24T06:46:30.120Z,71.75
2023-03-24T06:48:58.566Z,72.09
2023-03-24T06:51:27.049Z,72.09
2023-03-24T06:53:55.352Z,72.12
2023-03-24T06:56:28.495Z,72.32
2023-03-24T06:58:58.555Z,72.36
2023-03-24T07:01:30.322Z,72.46
2023-03-24T07:04:05.371Z,72.68
2023-03-24T07:06:40.201Z,72.68
2023-03-24T07:09:20.662Z,72.51
2023-03-24T07:11:48.862Z,72.59
2023-03-24T07:14:17.016Z,72.55
2023-03-24T07:16:45.807Z,72.32
2023-03-24T07:19:32.712Z,72.21
2023-03-24T07:22:38.412Z,72.14
2023-03-24T07:25:25.751Z,72.22
2023-03-24T07:28:11.890Z,72.29
2023-03-24T07:30:41.236Z,72.48
2023-03-24T07:33:12.979Z,72.57
2023-03-24T07:35:42.991Z,72.34
2023-03-24T07:38:15.799Z,72.47
2023-03-24T07:40:44.422Z,72.48
2023-03-24T07:43:13.215Z,72.38
2023-03-24T07:45:46.324Z,72.42
2023-03-24T07:48:16.673Z,72.49
2023-03-24T07:50:45.531Z,72.35
2023-03-24T07:53:45.792Z,72.46
2023-03-24T07:56:15.070Z,72.46
2023-03-24T07:58:49.670Z,72.31
2023-03-24T08:01:24.183Z,72.33
2023-03-24T08:06:46.346Z,72.51
2023-03-24T08:09:15.043Z,72.85
2023-03-24T08:11:43.481Z,72.65
2023-03-24T08:14:12.372Z,72.73
2023-03-24T08:16:40.620Z,72.93
2023-03-24T08:19:13.234Z,72.90
2023-03-24T08:21:43.219Z,72.84
2023-03-24T08:24:11.401Z,72.96
2023-03-24T08:26:42.922Z,72.99
2023-03-24T08:29:11.394Z,73.26
2023-03-24T08:31:39.504Z,73.32
2023-03-24T08:34:15.417Z,73.20
2023-03-24T08:36:43.720Z,73.16
2023-03-24T08:39:12.812Z,73.38
2023-03-24T08:41:41.138Z,73.19
2023-03-24T08:44:10.425Z,73.29
2023-03-24T08:46:40.224Z,73.28
2023-03-24T08:49:08.616Z,73.00
2023-03-24T08:51:38.470Z,72.82
2023-03-24T08:54:06.632Z,72.63
2023-03-24T08:56:34.978Z,72.42
2023-03-24T08:59:04.710Z,72.31
2023-03-24T09:01:37.068Z,72.02
2023-03-24T09:04:06.046Z,71.66
2023-03-24T09:06:34.718Z,71.14
2023-03-24T09:09:02.910Z,71.01
2023-03-24T09:11:38.573Z,70.79
2023-03-24T09:14:07.346Z,70.49
2023-03-24T09:16:35.566Z,70.32
2023-03-24T09:19:05.911Z,69.84
2023-03-24T09:21:36.221Z,69.74
2023-03-24T09:24:04.700Z,69.42
2023-03-24T09:26:34.179Z,69.03
2023-03-24T09:29:02.938Z,68.78
2023-03-24T09:31:33.497Z,68.42
2023-03-24T09:34:04.223Z,68.61
2023-03-24T09:36:32.723Z,68.28
2023-03-24T09:39:01.004Z,68.16
2023-03-24T09:41:33.128Z,68.39
2023-03-24T09:44:21.811Z,68.08
2023-03-24T09:47:01.547Z,67.79
2023-03-24T09:49:31.525Z,67.32
2023-03-24T09:52:05.014Z,67.03
2023-03-24T09:54:44.969Z,66.81
2023-03-24T09:57:21.542Z,66.47
2023-03-24T09:59:51.742Z,65.90
2023-03-24T10:02:20.789Z,65.78
2023-03-24T10:04:49.427Z,65.39
2023-03-24T10:07:35.184Z,65.11
2023-03-24T10:10:03.737Z,64.79
2023-03-24T10:12:39.027Z,64.29
2023-03-24T10:18:02.194Z,63.57
2023-03-24T10:20:42.823Z,63.33
2023-03-24T10:23:35.627Z,62.97
2023-03-24T10:26:06.067Z,62.58
2023-03-24T10:28:44.262Z,62.14
2023-03-24T10:31:14.305Z,61.83
2023-03-24T10:33:44.751Z,61.72
2023-03-24T10:36:18.501Z,61.26
2023-03-24T10:38:51.090Z,60.69
2023-03-24T10:41:21.903Z,60.13
2023-03-24T10:43:54.318Z,59.87
2023-03-24T10:46:28.364Z,59.73
2023-03-24T10:49:12.076Z,59.44
2023-03-24T10:51:49.797Z,59.33
2023-03-24T10:54:20.616Z,59.21
2023-03-24T10:57:00.738Z,59.00
2023-03-24T10:59:47.234Z,58.64
2023-03-24T11:02:17.788Z,58.32
2023-03-24T11:04:57.127Z,58.34
2023-03-24T11:07:33.028Z,58.20
2023-03-24T11:10:07.802Z,57.71
2023-03-24T11:12:39.031Z,57.28
2023-03-24T11:15:29.402Z,57.12
2023-03-24T11:18:08.743Z,56.96
2023-03-24T11:20:41.723Z,56.68
2023-03-24T11:23:13.215Z,56.51
2023-03-24T11:25:42.173Z,56.14
2023-03-24T11:28:15.911Z,55.85
2023-03-24T11:30:47.269Z,55.50
2023-03-24T11:33:34.488Z,55.31
2023-03-24T11:36:31.178Z,55.04
2023-03-24T11:39:22.936Z,54.94
2023-03-24T11:42:26.921Z,54.98
2023-03-24T11:44:56.554Z,54.87
2023-03-24T11:47:30.758Z,54.32
2023-03-24T11:50:11.154Z,53.88
2023-03-24T11:53:04.194Z,53.40
2023-03-24T11:55:33.191Z,52.45
2023-03-24T11:58:17.786Z,52.72
2023-03-24T12:01:05.297Z,53.26
2023-03-24T12:04:11.604Z,53.05
2023-03-24T12:06:46.964Z,53.06
2023-03-24T12:09:17.802Z,52.95
2023-03-24T12:11:51.212Z,52.91
2023-03-24T12:14:34.979Z,52.65
2023-03-24T12:17:16.996Z,52.33
2023-03-24T12:19:48.455Z,52.13
2023-03-24T12:22:39.268Z,52.05
2023-03-24T12:25:38.627Z,51.51
2023-03-24T12:28:10.606Z,51.39
2023-03-24T12:30:49.034Z,51.35
2023-03-24T12:33:29.659Z,51.41
2023-03-24T12:36:31.986Z,51.35
2023-03-24T12:39:35.839Z,51.40
2023-03-24T12:42:09.054Z,51.23
2023-03-24T12:44:46.518Z,50.50
2023-03-24T12:47:20.913Z,50.13
2023-03-24T12:50:27.897Z,50.07
2023-03-24T12:53:16.379Z,50.03
2023-03-24T12:56:20.240Z,50.05
2023-03-24T12:58:59.952Z,50.00
2023-03-24T13:01:45.300Z,50.07
2023-03-24T13:04:26.033Z,49.45
2023-03-24T13:07:06.963Z,49.25
2023-03-24T13:09:55.897Z,49.13
2023-03-24T13:12:25.041Z,49.23
2023-03-24T13:15:12.239Z,49.07
2023-03-24T13:17:49.550Z,48.93
2023-03-24T13:20:27.935Z,48.58
2023-03-24T13:22:56.536Z,48.25
2023-03-24T13:26:15.028Z,48.10
2023-03-24T13:28:50.150Z,47.65
2023-03-24T13:31:18.364Z,47.50
2023-03-24T13:33:47.352Z,47.41
2023-03-24T13:36:27.497Z,47.33
2023-03-24T13:38:57.358Z,47.20
2023-03-24T13:41:28.852Z,47.12
2023-03-24T13:44:19.823Z,47.18
2023-03-24T13:47:20.653Z,47.13
2023-03-24T13:50:07.728Z,47.05
2023-03-24T13:52:44.987Z,47.15
2023-03-24T13:55:18.905Z,46.98
2023-03-24T13:58:16.338Z,47.08
2023-03-24T14:01:11.295Z,47.22
2023-03-24T14:03:43.855Z,47.23
2023-03-24T14:06:16.577Z,47.35
2023-03-24T14:09:05.943Z,47.48
2023-03-24T14:11:34.434Z,47.59
2023-03-24T14:14:14.355Z,47.47
2023-03-24T14:17:02.000Z,47.60
2023-03-24T14:20:10.043Z,47.96
2023-03-24T14:22:42.228Z,48.15
2023-03-24T14:25:16.415Z,48.25
2023-03-24T14:27:46.104Z,48.37
2023-03-24T14:30:30.737Z,48.11
2023-03-24T14:33:01.786Z,48.29
2023-03-24T14:35:32.348Z,48.41
2023-03-24T14:38:05.480Z,48.39
2023-03-24T14:40:39.105Z,48.46
2023-03-24T14:43:22.525Z,48.50
2023-03-24T14:46:21.292Z,48.52
2023-03-24T14:48:58.151Z,48.72
2023-03-24T14:51:39.271Z,48.65
2023-03-24T14:54:16.832Z,48.89
2023-03-24T14:56:47.894Z,48.92
2023-03-24T14:59:46.825Z,48.92
2023-03-24T15:02:37.901Z,48.96
2023-03-24T15:05:25.582Z,49.22
2023-03-24T15:08:18.448Z,49.40
2023-03-24T15:10:53.129Z,49.61
2023-03-24T15:13:30.575Z,49.67
2023-03-24T15:16:27.078Z,49.94
2023-03-24T15:19:01.361Z,50.17
2023-03-24T15:21:41.129Z,50.05
2023-03-24T15:24:21.419Z,50.13
2023-03-24T15:26:51.625Z,50.16
2023-03-24T15:29:20.767Z,50.42
2023-03-24T15:31:50.181Z,50.58
2023-03-24T15:34:29.848Z,50.64
2023-03-24T15:37:03.864Z,50.82
2023-03-24T15:39:39.818Z,50.97
2023-03-24T15:42:14.154Z,51.15
2023-03-24T15:44:42.494Z,51.33
2023-03-24T15:47:25.250Z,51.45
2023-03-24T15:49:57.904Z,51.56
2023-03-24T15:52:36.284Z,51.73
2023-03-24T15:55:28.524Z,51.76
2023-03-24T15:57:57.293Z,51.87
2023-03-24T16:00:31.136Z,51.85
2023-03-24T16:03:01.020Z,52.07
2023-03-24T16:05:31.171Z,52.11
2023-03-24T16:08:05.850Z,52.20
2023-03-24T16:10:43.324Z,52.40
2023-03-24T16:13:21.697Z,52.66
2023-03-24T16:15:57.617Z,52.72
2023-03-24T16:18:37.359Z,52.71
2023-03-24T16:21:20.867Z,52.84
2023-03-24T16:23:53.441Z,52.97
2023-03-24T16:26:22.458Z,53.05
2023-03-24T16:29:22.183Z,53.17
2023-03-24T16:31:51.952Z,53.44
2023-03-24T16:34:21.257Z,53.53
2023-03-24T16:36:51.233Z,53.68
2023-03-24T16:39:21.184Z,53.66
2023-03-24T16:41:54.350Z,53.93
2023-03-24T16:44:23.310Z,54.05
2023-03-24T16:46:54.056Z,54.26
2023-03-24T16:49:24.116Z,54.46
2023-03-24T16:51:53.358Z,54.58
2023-03-24T16:54:25.531Z,54.70
2023-03-24T16:56:54.460Z,54.99
2023-03-24T16:59:22.785Z,55.13
2023-03-24T17:01:52.254Z,55.29
2023-03-24T17:04:22.631Z,55.35
2023-03-24T17:06:57.791Z,55.30
2023-03-24T17:09:28.675Z,55.54
2023-03-24T17:11:57.569Z,55.71
2023-03-24T17:14:32.866Z,55.74
2023-03-24T17:17:04.319Z,55.74
2023-03-24T17:19:33.191Z,55.86
2023-03-24T17:22:05.978Z,56.08
2023-03-24T17:24:41.840Z,56.13
2023-03-24T17:27:18.843Z,56.21
2023-03-24T17:29:47.302Z,56.17
2023-03-24T17:32:15.839Z,56.26
2023-03-24T17:34:47.326Z,56.33
2023-03-24T17:37:18.282Z,56.32
2023-03-24T17:39:47.476Z,56.47
2023-03-24T17:42:16.559Z,56.40
2023-03-24T17:44:44.813Z,56.77
2023-03-24T17:47:21.010Z,56.72
2023-03-24T17:50:12.487Z,56.60
2023-03-24T17:52:47.473Z,56.83
2023-03-24T17:55:17.107Z,57.05
2023-03-24T17:57:45.718Z,57.09
2023-03-24T18:00:14.721Z,57.21
2023-03-24T18:02:43.715Z,57.39
2023-03-24T18:05:16.065Z,57.49
2023-03-24T18:07:47.341Z,57.79
2023-03-24T18:10:16.077Z,57.59
2023-03-24T18:12:47.273Z,57.68
2023-03-24T18:15:15.924Z,57.98
2023-03-24T18:17:44.224Z,58.10
2023-03-24T18:20:21.120Z,58.08
2023-03-24T18:22:49.389Z,58.21
2023-03-24T18:25:17.745Z,58.25
2023-03-24T18:27:46.134Z,58.60
2023-03-24T18:30:14.631Z,58.89
2023-03-24T18:32:43.315Z,59.29
2023-03-24T18:35:16.443Z,59.76
2023-03-24T18:37:45.050Z,60.16
2023-03-24T18:40:15.902Z,60.41
2023-03-24T18:42:45.216Z,60.78
2023-03-24T18:45:19.634Z,61.12
2023-03-24T18:47:50.596Z,61.26
2023-03-24T18:50:19.727Z,61.58
2023-03-24T18:52:50.142Z,61.86
2023-03-24T18:55:18.694Z,61.95
2023-03-24T18:57:46.872Z,62.41
2023-03-24T19:00:15.584Z,62.53
2023-03-24T19:02:44.025Z,62.77
2023-03-24T19:05:14.256Z,62.82
2023-03-24T19:07:44.771Z,63.00
2023-03-24T19:10:13.068Z,63.41
2023-03-24T19:12:42.054Z,63.45
2023-03-24T19:15:13.717Z,63.68
2023-03-24T19:17:42.190Z,64.14
2023-03-24T19:20:11.234Z,64.36
2023-03-24T19:22:41.832Z,64.58
2023-03-24T19:25:10.459Z,65.17
2023-03-24T19:27:46.915Z,65.65
2023-03-24T19:30:16.209Z,65.92
2023-03-24T19:32:46.792Z,66.22
2023-03-24T19:35:15.452Z,66.35
2023-03-24T19:37:43.913Z,66.60
2023-03-24T19:40:16.765Z,66.65
2023-03-24T19:42:47.242Z,66.66
2023-03-24T19:45:16.858Z,66.55
2023-03-24T19:47:47.984Z,66.53
2023-03-24T19:50:16.898Z,66.51
2023-03-24T19:52:52.146Z,66.58
2023-03-24T19:55:21.574Z,66.74
2023-03-24T19:57:49.704Z,66.68
2023-03-24T20:00:18.546Z,66.67
2023-03-24T20:02:47.034Z,66.85
2023-03-24T20:05:15.252Z,67.00
2023-03-24T20:07:43.866Z,67.22
2023-03-24T20:10:12.125Z,67.33
2023-03-24T20:12:46.128Z,67.68
2023-03-24T20:15:15.704Z,67.75
2023-03-24T20:17:44.225Z,67.89
2023-03-24T20:20:15.729Z,68.10
2023-03-24T20:22:49.068Z,68.48
2023-03-24T20:25:17.920Z,68.50
2023-03-24T20:27:48.113Z,68.95
2023-03-24T20:30:17.750Z,69.07
2023-03-24T20:32:47.872Z,69.37
2023-03-24T20:35:18.383Z,69.59
2023-03-24T20:37:47.017Z,69.78
2023-03-24T20:40:15.416Z,69.90
2023-03-24T20:42:44.074Z,70.12
2023-03-24T20:45:12.419Z,70.38
2023-03-24T20:47:44.532Z,70.57
2023-03-24T20:50:13.549Z,70.70
2023-03-24T20:52:47.582Z,70.71
2023-03-24T20:55:36.024Z,71.11
2023-03-24T20:58:08.484Z,71.38
2023-03-24T21:00:42.144Z,71.35
2023-03-24T21:03:12.399Z,71.34
2023-03-24T21:05:40.585Z,71.81
2023-03-24T21:08:08.886Z,71.93
2023-03-24T21:10:45.651Z,72.01
2023-03-24T21:13:17.058Z,72.12
2023-03-24T21:15:45.737Z,72.14
2023-03-24T21:18:13.959Z,72.29
2023-03-24T21:21:12.724Z,72.64
2023-03-24T21:23:42.385Z,72.57
2023-03-24T21:26:15.356Z,72.83
2023-03-24T21:28:44.630Z,72.93
2023-03-24T21:31:21.762Z,73.06
2023-03-24T21:33:51.085Z,73.23
2023-03-24T21:36:19.416Z,73.36
2023-03-24T21:38:49.960Z,73.45
2023-03-24T21:41:18.652Z,73.55
2023-03-24T21:43:46.963Z,73.71
2023-03-24T21:46:21.723Z,73.68
2023-03-24T21:48:51.932Z,73.88
2023-03-24T21:51:34.303Z,74.08
2023-03-24T21:54:06.798Z,74.39
2023-03-24T21:56:38.140Z,74.63
2023-03-24T21:59:06.535Z,74.81
2023-03-24T22:01:36.407Z,74.64
2023-03-24T22:04:06.053Z,74.69
2023-03-24T22:06:38.763Z,74.78
2023-03-24T22:09:07.180Z,74.72
2023-03-24T22:11:35.685Z,74.85
2023-03-24T22:14:10.662Z,74.97
2023-03-24T22:16:41.186Z,74.75
2023-03-24T22:19:09.449Z,74.89
2023-03-24T22:21:39.798Z,75.01
2023-03-24T22:24:08.526Z,75.24
2023-03-24T22:26:36.655Z,75.13
2023-03-24T22:29:05.433Z,75.30
2023-03-24T22:31:34.306Z,75.26
2023-03-24T22:34:02.472Z,75.16
2023-03-24T22:36:31.873Z,75.23
2023-03-24T22:39:00.042Z,75.10
2023-03-24T22:41:28.324Z,75.10
2023-03-24T22:43:56.714Z,75.10
2023-03-24T22:46:25.730Z,75.37
2023-03-24T22:48:53.903Z,75.64
2023-03-24T22:51:22.237Z,75.51
2023-03-24T22:53:52.754Z,75.66
2023-03-24T22:56:21.159Z,76.15
2023-03-24T22:58:50.403Z,76.16
2023-03-24T23:01:18.517Z,76.32
2023-03-24T23:03:46.759Z,76.58
2023-03-24T23:06:21.629Z,76.69
2023-03-24T23:08:53.646Z,76.85
2023-03-24T23:11:21.914Z,76.97
2023-03-24T23:14:06.441Z,77.12
2023-03-24T23:16:37.818Z,77.16
2023-03-24T23:19:09.749Z,77.24
2023-03-24T23:21:39.533Z,77.22
2023-03-24T23:24:07.822Z,77.29
2023-03-24T23:26:39.299Z,77.35
2023-03-24T23:29:07.816Z,77.40
2023-03-24T23:31:37.059Z,77.39
2023-03-24T23:34:07.580Z,77.26
2023-03-24T23:36:36.113Z,77.40
2023-03-24T23:39:06.077Z,77.33
2023-03-24T23:41:36.055Z,77.62
2023-03-24T23:44:04.484Z,77.41
2023-03-24T23:46:34.859Z,77.29
2023-03-24T23:49:03.488Z,77.20
2023-03-24T23:51:31.590Z,76.94
2023-03-24T23:53:59.788Z,76.84
2023-03-24T23:56:30.822Z,76.65
2023-03-24T23:58:59.157Z,76.33
